• Join FlightAware (Why Join?)
  • Login
  • US Flag 
03:38PM EDT


 

Airport Tracker/Info


-or-


 

Live Flight TrackerFlight Track Log ✈ GJS6221 ✈ 13-Oct-2013 ✈ KLGA - KSAV

Flight Track Log - Related Links

Times and Time Zones

All times are in EDT time to prevent confusion due to time zone crossing. See the GJS6221 flight status page for this flight to view local times or setup timezone preferences in your user account.

Time Position Orientation Groundspeed Altitude Reporting Facility
EDT Latitude Longitude Course Direction KTS MPH feet Rate Location/Type
04:35PM 40.7667 -73.8333 159° South 153 176 1,300  Level New York TRACON
04:36PM 40.7333 -73.8167 159° South 198 228 3,400 2,100 Climbing New York TRACON
04:37PM 40.7833 -73.7667 37° Northeast 264 304 5,300 2,280 Climbing New York TRACON
04:38PM 40.8000 -73.8500 285° West 290 334 8,000 2,760 Climbing New York TRACON
04:39PM 40.7500 -73.9333 232° Southwest 291 335 10,900 1,980 Climbing New York TRACON
04:40PM 40.6833 -74.0167 223° Southwest 347 399 12,000 780 Climbing New York TRACON
04:41PM 40.6000 -74.1167 222° Southwest 395 455 12,500 1,500 Climbing New York TRACON
04:43PM 40.3708 -74.1736 191° South 408 470 17,100 1,740 Climbing New York Center
04:44PM 40.2703 -74.1958 190° South 408 470 18,400 1,680 Climbing New York Center
04:45PM 40.1506 -74.2225 190° South 408 470 20,500 1,560 Climbing New York Center
04:48PM 39.9114 -74.3717 206° Southwest 411 473 23,900 1,260 Climbing Washington Center
04:49PM 39.8231 -74.4811 224° Southwest 427 491 25,000 1,080 Climbing Washington Center
04:50PM 39.7322 -74.5878 222° Southwest 438 504 26,100 1,080 Climbing Washington Center
04:51PM 39.6394 -74.6997 223° Southwest 448 516 27,200 1,080 Climbing Washington Center
04:52PM 39.5483 -74.8139 224° Southwest 453 521 28,300 1,080 Climbing Washington Center
04:53PM 39.4553 -74.9250 223° Southwest 453 521 29,400 1,020 Climbing Washington Center
04:54PM 39.3622 -75.0386 223° Southwest 453 521 30,400 960 Climbing Washington Center
04:55PM 39.2625 -75.1358 217° Southwest 458 527 31,400 900 Climbing Washington Center
04:56PM 39.1525 -75.2194 211° Southwest 458 527 32,300 900 Climbing Washington Center
04:57PM 39.0442 -75.3031 211° Southwest 463 533 33,300 900 Climbing Washington Center
04:58PM 38.9361 -75.3861 211° Southwest 458 527 34,200 900 Climbing Washington Center
04:59PM 38.8297 -75.4744 213° Southwest 458 527 35,200 900 Climbing Washington Center
05:00PM 38.7236 -75.5492 209° Southwest 453 521 36,000 360 Climbing Washington Center
05:01PM 38.6131 -75.6314 210° Southwest 453 521 36,000  Level Washington Center
05:02PM 38.5006 -75.7136 210° Southwest 458 527 36,000 540 Level Washington Center
05:03PM 38.3919 -75.7958 211° Southwest 464 534 37,100 960 Climbing Washington Center
05:04PM 38.2811 -75.8747 209° Southwest 464 534 38,000 420 Climbing Washington Center
05:05PM 38.1747 -75.9508 209° Southwest 464 534 38,000  Level Washington Center
05:06PM 38.0681 -76.0350 212° Southwest 459 528 38,000  Level Washington Center
05:07PM 37.9594 -76.1133 210° Southwest 459 528 38,000  Level Washington Center
05:08PM 37.8525 -76.1914 210° Southwest 459 528 38,000  Level Washington Center
05:09PM 37.7436 -76.2694 210° Southwest 454 522 38,000  Level Washington Center
05:10PM 37.6369 -76.3497 211° Southwest 454 522 38,000  Level Washington Center
05:11PM 37.5300 -76.4272 210° Southwest 454 522 38,000  Level Washington Center
05:12PM 37.4189 -76.5069 210° Southwest 454 522 38,000  Level Washington Center
05:13PM 37.3119 -76.5814 209° Southwest 449 517 38,000  Level Washington Center
05:14PM 37.2006 -76.6608 210° Southwest 449 517 38,000  Level Washington Center
05:15PM 37.0914 -76.7428 211° Southwest 454 522 38,000  Level Washington Center
05:16PM 36.9822 -76.8192 209° Southwest 454 522 38,000  Level Washington Center
05:17PM 36.8731 -76.8953 209° Southwest 454 522 38,000  Level Washington Center
05:18PM 36.7636 -76.9739 210° Southwest 454 522 38,000  Level Washington Center
05:19PM 36.6603 -77.0653 215° Southwest 454 522 38,000  Level Washington Center
05:20PM 36.5589 -77.1564 216° Southwest 454 522 38,000  Level Washington Center
05:21PM 36.4597 -77.2525 218° Southwest 459 528 38,000  Level Washington Center
05:22PM 36.3581 -77.3483 217° Southwest 464 534 38,000  Level Washington Center
05:23PM 36.2586 -77.4439 218° Southwest 464 534 38,000  Level Washington Center
05:24PM 36.1611 -77.5344 217° Southwest 457 526 38,000  Level Washington Center
05:25PM 36.0617 -77.6269 217° Southwest 457 526 38,000  Level Washington Center
05:26PM 35.9597 -77.7192 216° Southwest 457 526 38,000  Level Washington Center
05:27PM 35.8539 -77.8011 212° Southwest 457 526 38,000  Level Washington Center
05:28PM 35.7481 -77.8825 212° Southwest 457 526 38,000  Level Washington Center
05:29PM 35.6422 -77.9664 213° Southwest 457 526 38,000  Level Washington Center
05:30PM 35.5342 -78.0475 211° Southwest 457 526 38,000  Level Washington Center
05:31PM 35.4258 -78.1333 213° Southwest 462 532 38,000  Level Washington Center
05:32PM 35.3178 -78.2139 211° Southwest 462 532 38,000  Level Washington Center
05:33PM 35.2117 -78.2994 213° Southwest 462 532 38,000  Level Washington Center
05:34PM 35.1031 -78.3847 213° Southwest 462 532 38,000  Level Washington Center
05:35PM 34.9947 -78.4672 212° Southwest 462 532 38,000  Level Washington Center
05:36PM 34.8864 -78.5494 212° Southwest 462 532 38,000  Level Washington Center
05:39PM 34.5422 -78.8119 212° Southwest 468 539 38,000 -60 Level Jacksonville Center
05:40PM 34.4286 -78.9053 214° Southwest 456 525 37,900  Descending Jacksonville Center
05:41PM 34.3183 -78.9883 212° Southwest 461 531 38,000  Climbing Jacksonville Center
05:42PM 34.2147 -79.0758 215° Southwest 461 531 38,000  Level Jacksonville Center
05:43PM 34.1217 -79.1750 221° Southwest 461 531 38,000  Level Jacksonville Center
05:44PM 34.0244 -79.2744 220° Southwest 461 531 38,000  Level Jacksonville Center
05:45PM 33.9292 -79.3736 221° Southwest 461 531 38,000  Level Jacksonville Center
05:46PM 33.8500 -79.4542 220° Southwest 449 517 38,000  Level Jacksonville Center
05:47PM 33.7525 -79.5556 221° Southwest 450 518 38,000 -120 Level Jacksonville Center
05:48PM 33.6550 -79.6564 221° Southwest 456 525 37,800 -1,080 Descending Jacksonville Center
05:49PM 33.5575 -79.7572 221° Southwest 456 525 35,900 -1,980 Descending Jacksonville Center
05:50PM 33.4639 -79.8575 222° Southwest 461 531 33,900 -2,160 Descending Jacksonville Center
05:51PM 33.3661 -79.9556 220° Southwest 461 531 31,600 -2,340 Descending Jacksonville Center
05:52PM 33.2703 -80.0556 221° Southwest 461 531 29,300 -2,400 Descending Jacksonville Center
05:53PM 33.1642 -80.1606 220° Southwest 456 525 26,900 -2,700 Descending Jacksonville Center
05:54PM 33.0700 -80.2575 221° Southwest 461 531 24,000 -2,340 Descending Jacksonville Center
05:55PM 32.9742 -80.3569 221° Southwest 461 531 22,300 -2,100 Descending Jacksonville Center
05:56PM 32.8839 -80.4486 220° Southwest 455 524 19,800 -2,460 Descending Jacksonville Center
05:57PM 32.7939 -80.5375 220° Southwest 443 510 17,400 -2,400 Descending Jacksonville Center
05:58PM 32.7119 -80.6186 220° Southwest 420 483 15,000 -2,340 Descending Jacksonville Center
05:59PM 32.6361 -80.6969 221° Southwest 373 429 12,800 -1,800 Descending Jacksonville Center
06:00PM 32.5642 -80.7678 220° Southwest 342 394 11,500 -1,500 Descending Jacksonville Center
06:01PM 32.5047 -80.8308 222° Southwest 312 359 9,900 -1,620 Descending Jacksonville Center
06:02PM 32.4578 -80.9081 234° Southwest 292 336 8,300 -1,440 Descending Jacksonville Center
06:03PM 32.4150 -80.9731 232° Southwest 279 321 7,100 -1,200 Descending Jacksonville Center
06:04PM 32.3700 -81.0403 232° Southwest 254 292 6,000 -1,200 Descending Jacksonville Center
06:05PM 32.3292 -81.1003 231° Southwest 246 283 4,800 -960 Descending Jacksonville Center
06:06PM 32.2861 -81.1600 230° Southwest 246 283 4,100 -360 Descending Jacksonville Center
06:07PM 32.2494 -81.2147 232° Southwest 246 283 4,100 -540 Level Jacksonville Center
06:08PM 32.2083 -81.2769 232° Southwest 246 283 3,100 -1,020 Descending Jacksonville Center
06:09PM 32.1525 -81.3075 205° Southwest 236 272 2,100 -1,080 Descending Jacksonville Center
06:10PM 32.1269 -81.2758 134° Southeast 149 171 1,000 -960 Descending Jacksonville Center
06:11PM 32.1264 -81.2317 91° East 108 124 200 -420 Descending Jacksonville Center
06:12PM 32.1136 -81.2075 122° Southeast 108 124 200  Level Jacksonville Center
06:14PM 32.1167 -81.2000 90° East  Level FlightAware Approximate